createdAt,value
2017-08-06T00:00:37.054Z,4.70
2017-08-06T00:03:05.443Z,4.60
2017-08-06T00:05:33.815Z,4.60
2017-08-06T00:08:02.470Z,4.27
2017-08-06T00:10:30.854Z,5.03
2017-08-06T00:12:59.208Z,4.50
2017-08-06T00:15:27.989Z,4.73
2017-08-06T00:17:56.341Z,5.13
2017-08-06T00:20:24.710Z,5.13
2017-08-06T00:22:53.351Z,4.87
2017-08-06T00:25:21.803Z,5.10
2017-08-06T00:27:50.169Z,4.90
2017-08-06T00:30:18.781Z,4.43
2017-08-06T00:32:47.154Z,4.60
2017-08-06T00:35:15.538Z,4.60
2017-08-06T00:37:44.262Z,4.63
2017-08-06T00:40:12.594Z,4.37
2017-08-06T00:42:40.946Z,5.73
2017-08-06T00:45:09.739Z,5.10
2017-08-06T00:47:38.084Z,5.10
2017-08-06T00:50:06.427Z,5.63
2017-08-06T00:52:35.159Z,5.80
2017-08-06T00:55:03.502Z,4.70
2017-08-06T00:57:32.620Z,5.33
2017-08-06T01:00:01.587Z,5.17
2017-08-06T01:02:29.942Z,5.30
2017-08-06T01:04:58.303Z,4.93
2017-08-06T01:07:27.034Z,5.30
2017-08-06T01:09:55.383Z,5.30
2017-08-06T01:12:23.736Z,5.10
2017-08-06T01:14:52.810Z,4.50
2017-08-06T01:17:21.149Z,4.87
2017-08-06T01:19:49.494Z,4.63
2017-08-06T01:22:18.175Z,5.27
2017-08-06T01:24:46.529Z,5.10
2017-08-06T01:27:14.866Z,5.47
2017-08-06T01:29:43.730Z,4.73
2017-08-06T01:32:12.098Z,4.60
2017-08-06T01:34:40.456Z,5.37
2017-08-06T01:37:09.080Z,4.80
2017-08-06T01:39:37.430Z,4.87
2017-08-06T01:42:05.809Z,5.60
2017-08-06T01:44:34.509Z,5.13
2017-08-06T01:47:02.871Z,4.27
2017-08-06T01:49:31.214Z,5.27
2017-08-06T01:52:00.118Z,4.97
2017-08-06T01:54:28.482Z,4.70
2017-08-06T01:56:57.613Z,5.10
2017-08-06T01:59:26.294Z,4.63
2017-08-06T02:01:54.643Z,5.40
2017-08-06T02:04:22.980Z,4.87
2017-08-06T02:06:51.735Z,5.00
2017-08-06T02:09:20.102Z,4.73
2017-08-06T02:11:48.476Z,4.03
2017-08-06T02:14:17.932Z,5.00
2017-08-06T02:16:46.297Z,4.20
2017-08-06T02:19:14.660Z,4.30
2017-08-06T02:21:43.352Z,5.07
2017-08-06T02:24:11.734Z,5.40
2017-08-06T02:26:40.093Z,4.30
2017-08-06T02:29:09.207Z,4.97
2017-08-06T02:31:37.553Z,4.50
2017-08-06T02:34:05.913Z,4.50
2017-08-06T02:36:34.562Z,4.47
2017-08-06T02:39:02.921Z,5.10
2017-08-06T02:41:31.299Z,5.20
2017-08-06T02:44:00.093Z,5.30
2017-08-06T02:46:28.474Z,5.00
2017-08-06T02:48:56.806Z,5.30
2017-08-06T02:51:28.007Z,5.80
2017-08-06T02:53:56.369Z,5.23
2017-08-06T02:56:24.711Z,5.60
2017-08-06T02:58:53.447Z,5.00
2017-08-06T03:01:21.772Z,5.07
2017-08-06T03:03:50.115Z,5.77
2017-08-06T03:06:19.070Z,5.23
2017-08-06T03:08:47.423Z,5.73
2017-08-06T03:11:15.773Z,5.60
2017-08-06T03:13:44.523Z,5.33
2017-08-06T03:16:12.859Z,4.93
2017-08-06T03:18:41.208Z,5.50
2017-08-06T03:21:09.975Z,4.97
2017-08-06T03:23:38.324Z,6.47
2017-08-06T03:26:06.658Z,5.83
2017-08-06T03:28:35.335Z,5.30
2017-08-06T03:31:03.671Z,4.67
2017-08-06T03:33:32.009Z,6.80
2017-08-06T03:36:00.770Z,5.50
2017-08-06T03:38:29.099Z,5.33
2017-08-06T03:40:57.434Z,4.80
2017-08-06T03:43:26.293Z,5.10
2017-08-06T03:45:54.658Z,5.17
2017-08-06T03:48:23.009Z,5.40
2017-08-06T03:50:51.684Z,4.83
2017-08-06T03:53:20.048Z,4.53
2017-08-06T03:55:48.431Z,4.67
2017-08-06T03:58:17.279Z,5.70
2017-08-06T04:00:45.615Z,4.80
2017-08-06T04:03:13.971Z,5.50
2017-08-06T04:05:42.846Z,4.60
2017-08-06T04:08:11.204Z,4.43
2017-08-06T04:10:39.574Z,5.10
2017-08-06T04:13:08.188Z,5.23
2017-08-06T04:15:36.532Z,4.97
2017-08-06T04:18:04.913Z,4.77
2017-08-06T04:20:34.521Z,4.93
2017-08-06T04:23:02.865Z,4.70
2017-08-06T04:25:31.223Z,4.97
2017-08-06T04:27:59.873Z,4.50
2017-08-06T04:30:28.224Z,4.80
2017-08-06T04:32:56.590Z,4.33
2017-08-06T04:35:25.236Z,4.50
2017-08-06T04:37:53.674Z,4.30
2017-08-06T04:40:22.051Z,4.90
2017-08-06T04:42:51.118Z,4.10
2017-08-06T04:45:19.468Z,4.17
2017-08-06T04:47:48.566Z,4.03
2017-08-06T04:50:17.186Z,4.40
2017-08-06T04:52:45.526Z,4.30
2017-08-06T04:55:13.891Z,4.70
2017-08-06T04:57:42.644Z,4.50
2017-08-06T05:00:10.982Z,4.57
2017-08-06T05:02:39.322Z,3.77
2017-08-06T05:05:08.015Z,4.43
2017-08-06T05:07:36.375Z,4.73
2017-08-06T05:10:04.701Z,4.30
2017-08-06T05:12:33.361Z,4.90
2017-08-06T05:15:01.731Z,4.67
2017-08-06T05:17:30.085Z,4.27
2017-08-06T05:19:58.740Z,4.90
2017-08-06T05:22:27.118Z,5.07
2017-08-06T05:24:55.453Z,4.60
2017-08-06T05:27:24.594Z,4.87
2017-08-06T05:29:52.945Z,4.57
2017-08-06T05:32:22.075Z,5.40
2017-08-06T05:34:50.736Z,4.87
2017-08-06T05:37:19.826Z,4.37
2017-08-06T05:39:48.949Z,4.70
2017-08-06T05:42:17.669Z,4.67
2017-08-06T05:44:46.031Z,4.13
2017-08-06T05:47:14.379Z,4.00
2017-08-06T05:49:43.233Z,4.17
2017-08-06T05:52:11.577Z,4.50
2017-08-06T05:54:39.913Z,4.30
2017-08-06T05:57:08.832Z,4.20
2017-08-06T05:59:37.180Z,4.20
2017-08-06T06:02:05.535Z,3.93
2017-08-06T06:04:34.236Z,3.83
2017-08-06T06:07:02.582Z,3.60
2017-08-06T06:09:30.927Z,4.13
2017-08-06T06:11:59.934Z,3.60
2017-08-06T06:14:28.287Z,3.80
2017-08-06T06:16:56.637Z,3.63
2017-08-06T06:19:25.279Z,4.00
2017-08-06T06:21:53.629Z,3.30
2017-08-06T06:24:21.983Z,3.63
2017-08-06T06:26:50.827Z,3.53
2017-08-06T06:29:19.163Z,3.17
2017-08-06T06:31:47.514Z,3.30
2017-08-06T06:34:16.194Z,3.73
2017-08-06T06:36:44.540Z,3.17
2017-08-06T06:39:12.893Z,3.27
2017-08-06T06:41:41.743Z,3.13
2017-08-06T06:44:10.122Z,3.07
2017-08-06T06:46:38.465Z,3.10
2017-08-06T06:49:07.183Z,3.03
2017-08-06T06:51:35.551Z,3.37
2017-08-06T06:54:03.901Z,2.90
2017-08-06T06:56:32.762Z,3.00
2017-08-06T06:59:01.081Z,2.87
2017-08-06T07:01:29.464Z,3.90
2017-08-06T07:03:58.216Z,3.00
2017-08-06T07:06:26.558Z,2.83
2017-08-06T07:08:54.966Z,2.70
2017-08-06T07:11:23.647Z,2.40
2017-08-06T07:13:52.018Z,5.63
2017-08-06T07:16:20.334Z,2.70
2017-08-06T07:18:50.237Z,3.00
2017-08-06T07:21:18.588Z,3.27
2017-08-06T07:23:46.963Z,2.50
2017-08-06T07:26:15.736Z,2.13
2017-08-06T07:28:44.093Z,2.33
2017-08-06T07:31:12.437Z,2.80
2017-08-06T07:33:41.095Z,2.27
2017-08-06T07:36:09.466Z,2.60
2017-08-06T07:38:37.828Z,2.53
2017-08-06T07:41:06.678Z,3.00
2017-08-06T07:43:35.018Z,2.50
2017-08-06T07:46:03.365Z,3.47
2017-08-06T07:48:31.964Z,3.07
2017-08-06T07:51:00.327Z,3.23
2017-08-06T07:53:28.679Z,1.93
2017-08-06T07:55:57.354Z,2.60
2017-08-06T07:58:25.737Z,2.43
2017-08-06T08:00:54.102Z,2.87
2017-08-06T08:03:23.249Z,2.00
2017-08-06T08:05:51.642Z,2.63
2017-08-06T08:08:19.999Z,2.30
2017-08-06T08:10:48.623Z,2.80
2017-08-06T08:13:16.995Z,1.90
2017-08-06T08:15:45.346Z,2.53
2017-08-06T08:18:14.159Z,2.37
2017-08-06T08:20:42.498Z,1.70
2017-08-06T08:23:10.842Z,1.80
2017-08-06T08:25:39.796Z,2.17
2017-08-06T08:28:08.117Z,2.83
2017-08-06T08:30:36.493Z,2.07
2017-08-06T08:33:05.166Z,2.20
2017-08-06T08:35:33.514Z,1.80
2017-08-06T08:38:01.838Z,1.63
2017-08-06T08:40:30.490Z,2.03
2017-08-06T08:42:58.855Z,1.90
2017-08-06T08:45:27.183Z,2.30
2017-08-06T08:47:55.952Z,1.77
2017-08-06T08:50:24.308Z,2.00
2017-08-06T08:52:52.655Z,2.40
2017-08-06T08:55:21.556Z,2.47
2017-08-06T08:57:49.931Z,2.00
2017-08-06T09:00:19.035Z,1.83
2017-08-06T09:02:47.662Z,1.90
2017-08-06T09:05:15.983Z,2.07
2017-08-06T09:07:45.328Z,2.07
2017-08-06T09:10:14.033Z,1.87
2017-08-06T09:12:42.428Z,2.43
2017-08-06T09:15:11.579Z,1.73
2017-08-06T09:17:40.341Z,1.53
2017-08-06T09:20:08.724Z,1.90
2017-08-06T09:22:37.865Z,2.00
2017-08-06T09:25:06.554Z,2.53
2017-08-06T09:27:34.913Z,1.87
2017-08-06T09:30:03.254Z,1.90
2017-08-06T09:32:32.071Z,2.13
2017-08-06T09:35:00.427Z,2.20
2017-08-06T09:37:29.564Z,1.80
2017-08-06T09:39:58.332Z,1.47
2017-08-06T09:42:26.711Z,1.43
2017-08-06T09:44:55.052Z,1.67
2017-08-06T09:47:23.812Z,2.00
2017-08-06T09:49:52.178Z,1.50
2017-08-06T09:52:20.565Z,1.73
2017-08-06T09:54:49.298Z,1.33
2017-08-06T09:57:18.389Z,1.67
2017-08-06T09:59:47.526Z,2.60
2017-08-06T10:02:16.298Z,2.20
2017-08-06T10:04:44.659Z,1.87
2017-08-06T10:07:13.795Z,2.10
2017-08-06T10:09:42.757Z,1.70
2017-08-06T10:12:11.136Z,1.80
2017-08-06T10:14:40.280Z,1.60
2017-08-06T10:17:09.148Z,1.83
2017-08-06T10:19:37.506Z,1.97
2017-08-06T10:22:05.849Z,1.80
2017-08-06T10:24:34.489Z,1.70
2017-08-06T10:27:02.834Z,1.87
2017-08-06T10:29:31.956Z,1.80
2017-08-06T10:32:00.772Z,1.80
2017-08-06T10:34:29.131Z,1.50
2017-08-06T10:36:57.492Z,1.30
2017-08-06T10:39:26.461Z,1.47
2017-08-06T10:41:55.571Z,1.40
2017-08-06T10:44:24.694Z,1.30
2017-08-06T10:46:53.359Z,1.80
2017-08-06T10:49:21.724Z,1.67
2017-08-06T10:51:50.098Z,1.50
2017-08-06T10:54:18.947Z,1.70
2017-08-06T10:56:47.304Z,1.73
2017-08-06T10:59:15.665Z,1.70
2017-08-06T11:01:44.534Z,1.90
2017-08-06T11:04:12.949Z,1.50
2017-08-06T11:06:41.284Z,1.53
2017-08-06T11:09:10.038Z,1.80
2017-08-06T11:11:38.387Z,1.70
2017-08-06T11:14:07.494Z,1.53
2017-08-06T11:16:37.115Z,1.77
2017-08-06T11:19:05.478Z,1.70
2017-08-06T11:21:33.817Z,1.70
2017-08-06T11:24:02.748Z,1.40
2017-08-06T11:26:31.127Z,1.67
2017-08-06T11:28:59.482Z,1.83
2017-08-06T11:31:28.189Z,1.50
2017-08-06T11:33:56.568Z,1.50
2017-08-06T11:36:24.959Z,1.77
2017-08-06T11:38:53.660Z,1.50
2017-08-06T11:41:22.045Z,1.43
2017-08-06T11:43:50.400Z,1.30
2017-08-06T11:46:19.315Z,1.40
2017-08-06T11:48:47.664Z,1.40
2017-08-06T11:51:16.072Z,1.27
2017-08-06T11:53:44.740Z,0.90
2017-08-06T11:56:13.157Z,1.30
2017-08-06T11:58:41.494Z,1.73
2017-08-06T12:01:10.379Z,1.33
2017-08-06T12:03:38.721Z,1.30
2017-08-06T12:06:07.056Z,1.30
2017-08-06T12:08:35.947Z,1.20
2017-08-06T12:11:04.283Z,1.27
2017-08-06T12:13:32.643Z,1.47
2017-08-06T12:16:01.479Z,1.60
2017-08-06T12:18:29.812Z,1.40
2017-08-06T12:20:58.181Z,1.47
2017-08-06T12:23:26.876Z,1.90
2017-08-06T12:25:55.235Z,1.60
2017-08-06T12:28:23.569Z,1.63
2017-08-06T12:30:52.386Z,1.43
2017-08-06T12:33:20.754Z,1.47
2017-08-06T12:35:49.102Z,1.60
2017-08-06T12:38:17.822Z,1.70
2017-08-06T12:40:46.177Z,1.30
2017-08-06T12:43:14.539Z,1.30
2017-08-06T12:45:43.465Z,1.63
2017-08-06T12:48:11.830Z,1.90
2017-08-06T12:50:40.944Z,1.50
2017-08-06T12:53:09.940Z,1.70
2017-08-06T12:55:38.288Z,1.30
2017-08-06T12:58:06.640Z,1.60
2017-08-06T13:00:35.295Z,1.67
2017-08-06T13:03:03.641Z,1.63
2017-08-06T13:05:31.986Z,1.23
2017-08-06T13:08:00.825Z,1.30
2017-08-06T13:10:29.167Z,1.63
2017-08-06T13:12:57.507Z,1.63
2017-08-06T13:15:26.366Z,1.30
2017-08-06T13:17:54.722Z,1.50
2017-08-06T13:20:23.078Z,1.13
2017-08-06T13:22:51.800Z,1.83
2017-08-06T13:25:20.153Z,1.67
2017-08-06T13:27:48.523Z,1.80
2017-08-06T13:30:17.219Z,1.90
2017-08-06T13:32:45.607Z,1.70
2017-08-06T13:35:13.968Z,1.33
2017-08-06T13:37:42.854Z,1.27
2017-08-06T13:40:11.190Z,1.20
2017-08-06T13:42:39.529Z,1.57
2017-08-06T13:45:08.286Z,1.60
2017-08-06T13:47:36.664Z,1.37
2017-08-06T13:50:05.052Z,1.40
2017-08-06T13:52:33.906Z,1.37
2017-08-06T13:55:02.246Z,1.10
2017-08-06T13:57:30.590Z,1.40
2017-08-06T13:59:59.347Z,1.27
2017-08-06T14:02:27.731Z,1.30
2017-08-06T14:04:56.075Z,1.53
2017-08-06T14:07:25.035Z,3.30
2017-08-06T14:09:53.378Z,1.03
2017-08-06T14:12:21.715Z,1.30
2017-08-06T14:14:50.650Z,1.40
2017-08-06T14:17:19.014Z,1.20
2017-08-06T14:19:48.119Z,1.40
2017-08-06T14:22:16.956Z,1.10
2017-08-06T14:24:45.312Z,0.80
2017-08-06T14:27:13.682Z,1.13
2017-08-06T14:29:42.561Z,0.90
2017-08-06T14:32:10.906Z,1.33
2017-08-06T14:34:40.041Z,0.93
2017-08-06T14:37:08.752Z,1.20
2017-08-06T14:39:37.115Z,1.40
2017-08-06T14:42:05.458Z,1.57
2017-08-06T14:44:35.301Z,1.20
2017-08-06T14:47:03.660Z,1.40
2017-08-06T14:49:32.045Z,1.27
2017-08-06T14:52:00.685Z,1.00
2017-08-06T14:54:29.041Z,1.10
2017-08-06T14:56:57.405Z,1.10
2017-08-06T14:59:26.200Z,1.47
2017-08-06T15:01:54.552Z,1.37
2017-08-06T15:04:22.916Z,1.20
2017-08-06T15:06:51.678Z,1.40
2017-08-06T15:09:20.041Z,1.27
2017-08-06T15:11:48.414Z,1.40
2017-08-06T15:14:17.288Z,1.30
2017-08-06T15:16:45.635Z,1.30
2017-08-06T15:19:13.993Z,1.23
2017-08-06T15:21:42.606Z,1.70
2017-08-06T15:24:10.950Z,1.90
2017-08-06T15:26:39.312Z,1.30
2017-08-06T15:29:08.384Z,1.20
2017-08-06T15:31:36.751Z,1.73
2017-08-06T15:34:05.863Z,1.40
2017-08-06T15:36:34.609Z,1.20
2017-08-06T15:39:02.991Z,1.70
2017-08-06T15:41:32.100Z,1.87
2017-08-06T15:44:01.528Z,1.60
2017-08-06T15:46:29.907Z,1.60
2017-08-06T15:48:58.246Z,1.70
2017-08-06T15:51:27.033Z,1.47
2017-08-06T15:53:56.180Z,1.20
2017-08-06T15:56:24.543Z,1.90
2017-08-06T15:58:53.272Z,1.40
2017-08-06T16:01:21.785Z,1.83
2017-08-06T16:03:50.144Z,1.40
2017-08-06T16:06:18.846Z,1.47
2017-08-06T16:08:47.186Z,1.30
2017-08-06T16:11:15.572Z,1.37
2017-08-06T16:13:44.675Z,1.43
2017-08-06T16:16:13.026Z,2.00
2017-08-06T16:18:41.388Z,1.47
2017-08-06T16:21:10.006Z,2.00
2017-08-06T16:23:38.374Z,1.43
2017-08-06T16:26:06.736Z,1.83
2017-08-06T16:28:35.368Z,1.63
2017-08-06T16:31:03.736Z,1.67
2017-08-06T16:33:32.092Z,2.20
2017-08-06T16:36:01.959Z,1.47
2017-08-06T16:38:31.086Z,1.77
2017-08-06T16:40:59.538Z,1.87
2017-08-06T16:43:28.357Z,1.97
2017-08-06T16:45:56.706Z,1.60
2017-08-06T16:48:25.074Z,1.90
2017-08-06T16:50:53.723Z,1.73
2017-08-06T16:53:22.139Z,1.60
2017-08-06T16:55:51.291Z,2.40
2017-08-06T16:58:20.283Z,1.80
2017-08-06T17:00:48.635Z,2.27
2017-08-06T17:03:16.984Z,1.90
2017-08-06T17:05:45.655Z,2.10
2017-08-06T17:08:14.009Z,1.77
2017-08-06T17:10:42.360Z,1.60
2017-08-06T17:13:11.764Z,2.37
2017-08-06T17:15:40.133Z,1.70
2017-08-06T17:18:09.256Z,2.00
2017-08-06T17:20:38.245Z,1.57
2017-08-06T17:23:06.601Z,2.20
2017-08-06T17:25:35.777Z,2.00
2017-08-06T17:28:04.511Z,1.97
2017-08-06T17:30:32.897Z,2.00
2017-08-06T17:33:01.343Z,1.60
2017-08-06T17:35:30.782Z,1.90
2017-08-06T17:37:59.191Z,1.60
2017-08-06T17:40:27.568Z,1.73
2017-08-06T17:42:56.395Z,1.80
2017-08-06T17:45:24.844Z,1.87
2017-08-06T17:47:53.256Z,1.57
2017-08-06T17:50:22.087Z,1.30
2017-08-06T17:52:50.517Z,1.77
2017-08-06T17:55:19.890Z,1.87
2017-08-06T17:57:48.832Z,2.20
2017-08-06T18:00:17.301Z,2.20
2017-08-06T18:02:45.876Z,1.77
2017-08-06T18:05:14.715Z,1.80
2017-08-06T18:07:43.139Z,1.30
2017-08-06T18:10:11.587Z,1.53
2017-08-06T18:12:40.366Z,1.67
2017-08-06T18:15:08.780Z,1.93
2017-08-06T18:17:37.144Z,1.80
2017-08-06T18:20:05.814Z,1.90
2017-08-06T18:22:34.187Z,2.27
2017-08-06T18:25:02.588Z,2.00
2017-08-06T18:27:31.587Z,1.90
2017-08-06T18:29:59.962Z,2.87
2017-08-06T18:32:28.315Z,2.40
2017-08-06T18:34:56.965Z,3.23
2017-08-06T18:37:25.323Z,3.03
2017-08-06T18:39:53.719Z,2.20
2017-08-06T18:42:22.457Z,1.97
2017-08-06T18:44:50.854Z,2.00
2017-08-06T18:47:19.219Z,2.07
2017-08-06T18:49:48.279Z,2.33
2017-08-06T18:52:17.371Z,2.20
2017-08-06T18:54:45.756Z,2.97
2017-08-06T18:57:14.576Z,2.77
2017-08-06T18:59:42.936Z,3.20
2017-08-06T19:02:12.060Z,3.00
2017-08-06T19:04:40.838Z,3.23
2017-08-06T19:07:09.195Z,2.97
2017-08-06T19:09:38.315Z,4.73
2017-08-06T19:12:07.281Z,3.17
2017-08-06T19:14:35.659Z,2.83
2017-08-06T19:17:04.043Z,2.50
2017-08-06T19:19:32.960Z,3.37
2017-08-06T19:22:01.301Z,3.40
2017-08-06T19:24:30.464Z,2.70
2017-08-06T19:26:59.431Z,2.80
2017-08-06T19:29:27.793Z,2.57
2017-08-06T19:31:56.185Z,2.07
2017-08-06T19:34:24.912Z,2.53
2017-08-06T19:36:53.266Z,2.63
2017-08-06T19:39:21.657Z,2.87
2017-08-06T19:41:50.356Z,2.50
2017-08-06T19:44:18.806Z,2.13
2017-08-06T19:46:47.154Z,3.00
2017-08-06T19:49:15.865Z,2.20
2017-08-06T19:51:44.270Z,2.50
2017-08-06T19:54:12.670Z,2.90
2017-08-06T19:56:41.429Z,3.10
2017-08-06T19:59:09.831Z,2.30
2017-08-06T20:01:38.238Z,3.00
2017-08-06T20:04:07.015Z,2.90
2017-08-06T20:06:35.405Z,2.43
2017-08-06T20:09:04.556Z,2.90
2017-08-06T20:11:33.321Z,3.87
2017-08-06T20:14:01.649Z,2.70
2017-08-06T20:16:30.015Z,3.00
2017-08-06T20:18:58.791Z,2.60
2017-08-06T20:21:27.140Z,3.50
2017-08-06T20:23:55.487Z,2.70
2017-08-06T20:26:24.254Z,3.07
2017-08-06T20:28:52.658Z,3.30
2017-08-06T20:31:21.054Z,3.10
2017-08-06T20:33:50.549Z,3.27
2017-08-06T20:36:18.925Z,3.33
2017-08-06T20:38:47.277Z,3.63
2017-08-06T20:41:16.135Z,3.43
2017-08-06T20:43:44.508Z,3.60
2017-08-06T20:46:12.885Z,2.40
2017-08-06T20:48:41.544Z,3.20
2017-08-06T20:51:09.882Z,4.30
2017-08-06T20:53:38.237Z,4.10
2017-08-06T20:56:06.942Z,4.97
2017-08-06T20:58:35.310Z,4.73
2017-08-06T21:01:03.730Z,4.17
2017-08-06T21:03:32.459Z,4.07
2017-08-06T21:06:00.859Z,4.10
2017-08-06T21:08:29.237Z,4.37
2017-08-06T21:10:58.128Z,3.63
2017-08-06T21:13:26.500Z,3.97
2017-08-06T21:15:54.916Z,3.40
2017-08-06T21:18:23.612Z,4.23
2017-08-06T21:20:51.974Z,4.33
2017-08-06T21:23:20.313Z,3.77
2017-08-06T21:25:49.020Z,4.10
2017-08-06T21:28:17.361Z,3.97
2017-08-06T21:30:45.762Z,4.40
2017-08-06T21:33:14.653Z,4.20
2017-08-06T21:35:43.025Z,4.63
2017-08-06T21:38:11.386Z,4.20
2017-08-06T21:40:40.115Z,4.67
2017-08-06T21:43:08.485Z,3.80
2017-08-06T21:45:36.879Z,4.27
2017-08-06T21:48:05.960Z,4.30
2017-08-06T21:50:34.338Z,4.30
2017-08-06T21:53:02.684Z,4.17
2017-08-06T21:55:31.301Z,5.10
2017-08-06T21:57:59.697Z,4.80
2017-08-06T22:00:28.028Z,5.03
2017-08-06T22:02:56.665Z,4.87
2017-08-06T22:05:25.099Z,4.87
2017-08-06T22:07:53.454Z,4.90
2017-08-06T22:10:22.519Z,4.20
2017-08-06T22:12:50.873Z,4.67
2017-08-06T22:15:19.216Z,4.40
2017-08-06T22:17:48.146Z,4.60
2017-08-06T22:20:16.523Z,4.53
2017-08-06T22:22:44.903Z,4.30
2017-08-06T22:25:13.629Z,4.30
2017-08-06T22:27:41.967Z,4.20
2017-08-06T22:30:10.321Z,4.13
2017-08-06T22:32:39.167Z,3.90
2017-08-06T22:35:07.515Z,4.20
2017-08-06T22:37:35.881Z,4.10
2017-08-06T22:40:05.311Z,5.10
2017-08-06T22:42:33.680Z,4.63
2017-08-06T22:45:02.047Z,4.33
2017-08-06T22:47:30.690Z,4.50
2017-08-06T22:49:59.029Z,4.63
2017-08-06T22:52:27.371Z,4.67
2017-08-06T22:54:56.398Z,5.17
2017-08-06T22:57:24.748Z,4.97
2017-08-06T22:59:53.870Z,4.70
2017-08-06T23:02:22.536Z,5.47
2017-08-06T23:04:51.653Z,4.70
2017-08-06T23:07:20.004Z,4.37
2017-08-06T23:09:48.948Z,4.23
2017-08-06T23:12:17.334Z,4.47
2017-08-06T23:14:45.675Z,4.37
2017-08-06T23:17:14.432Z,4.53
2017-08-06T23:19:42.786Z,4.70
2017-08-06T23:22:11.137Z,4.30
2017-08-06T23:24:40.012Z,3.80
2017-08-06T23:27:08.356Z,4.07
2017-08-06T23:29:36.711Z,4.23
2017-08-06T23:32:05.374Z,5.00
2017-08-06T23:34:33.747Z,4.43
2017-08-06T23:37:02.112Z,4.57
2017-08-06T23:39:30.951Z,4.47
2017-08-06T23:41:59.312Z,4.50
2017-08-06T23:44:27.680Z,4.30
2017-08-06T23:46:56.311Z,4.50
2017-08-06T23:49:24.662Z,4.70
2017-08-06T23:51:53.022Z,4.60
2017-08-06T23:54:21.803Z,5.50
2017-08-06T23:56:50.155Z,4.63
2017-08-06T23:59:19.322Z,5.00
